sensor_id;sensor_type;location;lat;lon;timestamp;P1;durP1;ratioP1;P2;durP2;ratioP2
68438;SDS011;55421;51.600;5.718;2023-05-20T00:00:45;7.90;;;3.60;;
68438;SDS011;55421;51.600;5.718;2023-05-20T00:03:18;10.40;;;4.20;;
68438;SDS011;55421;51.600;5.718;2023-05-20T00:05:45;6.80;;;3.90;;
68438;SDS011;55421;51.600;5.718;2023-05-20T00:08:12;8.10;;;4.50;;
68438;SDS011;55421;51.600;5.718;2023-05-20T00:10:39;10.40;;;3.90;;
68438;SDS011;55421;51.600;5.718;2023-05-20T00:13:08;4.50;;;3.90;;
68438;SDS011;55421;51.600;5.718;2023-05-20T00:15:35;6.40;;;4.00;;
68438;SDS011;55421;51.600;5.718;2023-05-20T00:18:02;7.10;;;3.90;;
68438;SDS011;55421;51.600;5.718;2023-05-20T00:20:29;9.10;;;4.10;;
68438;SDS011;55421;51.600;5.718;2023-05-20T00:22:56;8.20;;;4.20;;
68438;SDS011;55421;51.600;5.718;2023-05-20T00:25:23;14.00;;;4.30;;
68438;SDS011;55421;51.600;5.718;2023-05-20T00:27:49;10.70;;;4.50;;
68438;SDS011;55421;51.600;5.718;2023-05-20T00:30:16;8.40;;;4.00;;
68438;SDS011;55421;51.600;5.718;2023-05-20T00:32:42;12.00;;;4.20;;
68438;SDS011;55421;51.600;5.718;2023-05-20T00:35:09;7.80;;;4.00;;
68438;SDS011;55421;51.600;5.718;2023-05-20T00:37:36;6.50;;;3.80;;
68438;SDS011;55421;51.600;5.718;2023-05-20T00:40:03;10.30;;;4.50;;
68438;SDS011;55421;51.600;5.718;2023-05-20T00:42:30;6.70;;;4.40;;
68438;SDS011;55421;51.600;5.718;2023-05-20T00:44:57;10.10;;;4.40;;
68438;SDS011;55421;51.600;5.718;2023-05-20T00:47:31;10.20;;;4.90;;
68438;SDS011;55421;51.600;5.718;2023-05-20T00:49:59;9.10;;;4.10;;
68438;SDS011;55421;51.600;5.718;2023-05-20T00:52:28;10.70;;;4.20;;
68438;SDS011;55421;51.600;5.718;2023-05-20T00:54:58;9.50;;;4.30;;
68438;SDS011;55421;51.600;5.718;2023-05-20T00:57:25;9.40;;;4.90;;
68438;SDS011;55421;51.600;5.718;2023-05-20T00:59:52;8.60;;;4.50;;
68438;SDS011;55421;51.600;5.718;2023-05-20T01:02:19;10.40;;;4.60;;
68438;SDS011;55421;51.600;5.718;2023-05-20T01:04:46;9.70;;;4.30;;
68438;SDS011;55421;51.600;5.718;2023-05-20T01:07:17;9.20;;;4.40;;
68438;SDS011;55421;51.600;5.718;2023-05-20T01:09:44;7.50;;;4.00;;
68438;SDS011;55421;51.600;5.718;2023-05-20T01:15:15;7.50;;;4.60;;
68438;SDS011;55421;51.600;5.718;2023-05-20T01:17:45;9.00;;;4.90;;
68438;SDS011;55421;51.600;5.718;2023-05-20T01:20:16;13.30;;;4.50;;
68438;SDS011;55421;51.600;5.718;2023-05-20T01:22:54;6.30;;;4.10;;
68438;SDS011;55421;51.600;5.718;2023-05-20T01:25:22;11.70;;;5.20;;
68438;SDS011;55421;51.600;5.718;2023-05-20T01:27:51;10.70;;;4.60;;
68438;SDS011;55421;51.600;5.718;2023-05-20T01:30:19;12.80;;;4.50;;
68438;SDS011;55421;51.600;5.718;2023-05-20T01:32:51;10.60;;;5.00;;
68438;SDS011;55421;51.600;5.718;2023-05-20T01:35:23;9.40;;;4.50;;
68438;SDS011;55421;51.600;5.718;2023-05-20T01:37:51;8.50;;;4.70;;
68438;SDS011;55421;51.600;5.718;2023-05-20T01:40:18;6.50;;;4.30;;
68438;SDS011;55421;51.600;5.718;2023-05-20T01:42:47;6.60;;;4.80;;
68438;SDS011;55421;51.600;5.718;2023-05-20T01:45:18;14.00;;;5.00;;
68438;SDS011;55421;51.600;5.718;2023-05-20T01:47:45;11.00;;;4.80;;
68438;SDS011;55421;51.600;5.718;2023-05-20T01:50:12;8.40;;;4.70;;
68438;SDS011;55421;51.600;5.718;2023-05-20T01:52:38;7.30;;;4.60;;
68438;SDS011;55421;51.600;5.718;2023-05-20T01:55:05;8.30;;;5.20;;
68438;SDS011;55421;51.600;5.718;2023-05-20T01:57:32;12.50;;;5.20;;
68438;SDS011;55421;51.600;5.718;2023-05-20T01:59:58;7.80;;;4.90;;
68438;SDS011;55421;51.600;5.718;2023-05-20T02:02:24;8.30;;;4.70;;
68438;SDS011;55421;51.600;5.718;2023-05-20T02:04:52;8.60;;;4.90;;
68438;SDS011;55421;51.600;5.718;2023-05-20T02:07:20;6.40;;;4.30;;
68438;SDS011;55421;51.600;5.718;2023-05-20T02:09:46;9.60;;;4.70;;
68438;SDS011;55421;51.600;5.718;2023-05-20T02:12:13;6.60;;;4.80;;
68438;SDS011;55421;51.600;5.718;2023-05-20T02:14:44;10.70;;;5.20;;
68438;SDS011;55421;51.600;5.718;2023-05-20T02:17:13;10.40;;;4.80;;
68438;SDS011;55421;51.600;5.718;2023-05-20T02:19:42;8.30;;;4.90;;
68438;SDS011;55421;51.600;5.718;2023-05-20T02:22:09;13.80;;;5.10;;
68438;SDS011;55421;51.600;5.718;2023-05-20T02:24:36;11.40;;;5.10;;
68438;SDS011;55421;51.600;5.718;2023-05-20T02:27:02;8.90;;;4.50;;
68438;SDS011;55421;51.600;5.718;2023-05-20T02:29:31;7.20;;;4.20;;
68438;SDS011;55421;51.600;5.718;2023-05-20T02:31:57;10.00;;;4.80;;
68438;SDS011;55421;51.600;5.718;2023-05-20T02:34:24;8.20;;;5.10;;
68438;SDS011;55421;51.600;5.718;2023-05-20T02:39:21;8.60;;;5.40;;
68438;SDS011;55421;51.600;5.718;2023-05-20T02:41:48;12.00;;;5.40;;
68438;SDS011;55421;51.600;5.718;2023-05-20T02:44:14;12.90;;;5.90;;
68438;SDS011;55421;51.600;5.718;2023-05-20T02:46:41;10.80;;;6.80;;
68438;SDS011;55421;51.600;5.718;2023-05-20T02:49:08;10.10;;;6.70;;
68438;SDS011;55421;51.600;5.718;2023-05-20T02:51:35;12.00;;;6.00;;
68438;SDS011;55421;51.600;5.718;2023-05-20T02:54:02;9.00;;;5.50;;
68438;SDS011;55421;51.600;5.718;2023-05-20T02:56:29;8.90;;;5.00;;
68438;SDS011;55421;51.600;5.718;2023-05-20T02:58:55;10.20;;;5.40;;
68438;SDS011;55421;51.600;5.718;2023-05-20T03:01:22;6.40;;;4.90;;
68438;SDS011;55421;51.600;5.718;2023-05-20T03:03:48;10.30;;;5.10;;
68438;SDS011;55421;51.600;5.718;2023-05-20T03:06:15;8.10;;;4.70;;
68438;SDS011;55421;51.600;5.718;2023-05-20T03:08:41;8.80;;;4.80;;
68438;SDS011;55421;51.600;5.718;2023-05-20T03:11:08;8.20;;;5.60;;
68438;SDS011;55421;51.600;5.718;2023-05-20T03:13:35;10.00;;;5.30;;
68438;SDS011;55421;51.600;5.718;2023-05-20T03:16:01;11.20;;;5.40;;
68438;SDS011;55421;51.600;5.718;2023-05-20T03:18:28;7.80;;;5.10;;
68438;SDS011;55421;51.600;5.718;2023-05-20T03:20:54;7.00;;;5.10;;
68438;SDS011;55421;51.600;5.718;2023-05-20T03:23:21;12.50;;;5.10;;
68438;SDS011;55421;51.600;5.718;2023-05-20T03:25:47;8.60;;;5.00;;
68438;SDS011;55421;51.600;5.718;2023-05-20T03:28:14;8.50;;;5.20;;
68438;SDS011;55421;51.600;5.718;2023-05-20T03:30:41;8.10;;;4.90;;
68438;SDS011;55421;51.600;5.718;2023-05-20T03:33:07;8.30;;;5.20;;
68438;SDS011;55421;51.600;5.718;2023-05-20T03:35:34;13.20;;;5.50;;
68438;SDS011;55421;51.600;5.718;2023-05-20T03:38:00;10.20;;;5.80;;
68438;SDS011;55421;51.600;5.718;2023-05-20T03:40:27;9.80;;;5.60;;
68438;SDS011;55421;51.600;5.718;2023-05-20T03:42:53;11.40;;;6.00;;
68438;SDS011;55421;51.600;5.718;2023-05-20T03:45:20;9.10;;;5.30;;
68438;SDS011;55421;51.600;5.718;2023-05-20T03:47:47;6.20;;;5.10;;
68438;SDS011;55421;51.600;5.718;2023-05-20T03:50:14;12.20;;;5.30;;
68438;SDS011;55421;51.600;5.718;2023-05-20T03:52:40;8.60;;;5.10;;
68438;SDS011;55421;51.600;5.718;2023-05-20T03:55:07;9.90;;;4.90;;
68438;SDS011;55421;51.600;5.718;2023-05-20T03:57:34;7.90;;;5.00;;
68438;SDS011;55421;51.600;5.718;2023-05-20T04:00:03;11.80;;;5.80;;
68438;SDS011;55421;51.600;5.718;2023-05-20T04:02:35;7.60;;;5.30;;
68438;SDS011;55421;51.600;5.718;2023-05-20T04:05:01;13.20;;;5.50;;
68438;SDS011;55421;51.600;5.718;2023-05-20T04:07:28;8.60;;;5.10;;
68438;SDS011;55421;51.600;5.718;2023-05-20T04:09:55;7.60;;;5.00;;
68438;SDS011;55421;51.600;5.718;2023-05-20T04:12:21;10.80;;;4.80;;
68438;SDS011;55421;51.600;5.718;2023-05-20T04:14:49;9.00;;;4.60;;
68438;SDS011;55421;51.600;5.718;2023-05-20T04:17:17;6.30;;;4.80;;
68438;SDS011;55421;51.600;5.718;2023-05-20T04:19:44;9.10;;;5.40;;
68438;SDS011;55421;51.600;5.718;2023-05-20T04:22:11;16.50;;;5.90;;
68438;SDS011;55421;51.600;5.718;2023-05-20T04:24:37;11.10;;;4.90;;
68438;SDS011;55421;51.600;5.718;2023-05-20T04:27:04;9.70;;;5.10;;
68438;SDS011;55421;51.600;5.718;2023-05-20T04:29:31;11.30;;;4.90;;
68438;SDS011;55421;51.600;5.718;2023-05-20T04:31:59;10.20;;;5.10;;
68438;SDS011;55421;51.600;5.718;2023-05-20T04:34:29;10.50;;;5.30;;
68438;SDS011;55421;51.600;5.718;2023-05-20T04:36:55;12.30;;;5.50;;
68438;SDS011;55421;51.600;5.718;2023-05-20T04:39:23;10.10;;;5.70;;
68438;SDS011;55421;51.600;5.718;2023-05-20T04:41:49;13.90;;;6.20;;
68438;SDS011;55421;51.600;5.718;2023-05-20T04:44:16;10.00;;;5.10;;
68438;SDS011;55421;51.600;5.718;2023-05-20T04:46:42;10.50;;;5.10;;
68438;SDS011;55421;51.600;5.718;2023-05-20T04:49:09;8.70;;;5.20;;
68438;SDS011;55421;51.600;5.718;2023-05-20T04:51:36;6.40;;;4.50;;
68438;SDS011;55421;51.600;5.718;2023-05-20T04:54:03;10.40;;;4.90;;
68438;SDS011;55421;51.600;5.718;2023-05-20T04:56:29;11.90;;;5.30;;
68438;SDS011;55421;51.600;5.718;2023-05-20T04:58:56;10.10;;;4.90;;
68438;SDS011;55421;51.600;5.718;2023-05-20T05:01:23;7.00;;;4.70;;
68438;SDS011;55421;51.600;5.718;2023-05-20T05:03:50;8.30;;;5.50;;
68438;SDS011;55421;51.600;5.718;2023-05-20T05:06:17;7.30;;;5.40;;
68438;SDS011;55421;51.600;5.718;2023-05-20T05:08:43;11.90;;;5.40;;
68438;SDS011;55421;51.600;5.718;2023-05-20T05:11:10;9.50;;;5.20;;
68438;SDS011;55421;51.600;5.718;2023-05-20T05:13:37;7.90;;;4.90;;
68438;SDS011;55421;51.600;5.718;2023-05-20T05:16:04;7.50;;;5.60;;
68438;SDS011;55421;51.600;5.718;2023-05-20T05:18:30;12.20;;;4.80;;
68438;SDS011;55421;51.600;5.718;2023-05-20T05:21:01;8.30;;;5.40;;
68438;SDS011;55421;51.600;5.718;2023-05-20T05:23:28;8.20;;;5.40;;
68438;SDS011;55421;51.600;5.718;2023-05-20T05:25:55;6.10;;;4.90;;
68438;SDS011;55421;51.600;5.718;2023-05-20T05:28:22;9.20;;;5.10;;
68438;SDS011;55421;51.600;5.718;2023-05-20T05:30:49;13.60;;;4.90;;
68438;SDS011;55421;51.600;5.718;2023-05-20T05:33:16;8.10;;;5.10;;
68438;SDS011;55421;51.600;5.718;2023-05-20T05:35:42;8.20;;;4.90;;
68438;SDS011;55421;51.600;5.718;2023-05-20T05:38:09;10.90;;;5.40;;
68438;SDS011;55421;51.600;5.718;2023-05-20T05:40:36;8.80;;;4.60;;
68438;SDS011;55421;51.600;5.718;2023-05-20T05:43:03;10.50;;;5.50;;
68438;SDS011;55421;51.600;5.718;2023-05-20T05:45:29;9.30;;;5.10;;
68438;SDS011;55421;51.600;5.718;2023-05-20T05:47:56;7.30;;;5.00;;
68438;SDS011;55421;51.600;5.718;2023-05-20T05:50:22;7.90;;;4.60;;
68438;SDS011;55421;51.600;5.718;2023-05-20T05:52:49;9.30;;;4.80;;
68438;SDS011;55421;51.600;5.718;2023-05-20T05:55:16;7.60;;;4.70;;
68438;SDS011;55421;51.600;5.718;2023-05-20T05:57:43;6.90;;;4.80;;
68438;SDS011;55421;51.600;5.718;2023-05-20T06:00:10;8.80;;;4.80;;
68438;SDS011;55421;51.600;5.718;2023-05-20T06:02:37;9.30;;;4.70;;
68438;SDS011;55421;51.600;5.718;2023-05-20T06:05:04;8.10;;;5.00;;
68438;SDS011;55421;51.600;5.718;2023-05-20T06:07:31;7.60;;;4.60;;
68438;SDS011;55421;51.600;5.718;2023-05-20T06:09:57;10.90;;;5.00;;
68438;SDS011;55421;51.600;5.718;2023-05-20T06:12:24;8.80;;;4.40;;
68438;SDS011;55421;51.600;5.718;2023-05-20T06:14:51;7.90;;;4.90;;
68438;SDS011;55421;51.600;5.718;2023-05-20T06:17:17;7.20;;;4.60;;
68438;SDS011;55421;51.600;5.718;2023-05-20T06:19:44;7.20;;;5.10;;
68438;SDS011;55421;51.600;5.718;2023-05-20T06:22:10;8.00;;;4.60;;
68438;SDS011;55421;51.600;5.718;2023-05-20T06:24:37;7.50;;;4.90;;
68438;SDS011;55421;51.600;5.718;2023-05-20T06:27:03;9.40;;;5.00;;
68438;SDS011;55421;51.600;5.718;2023-05-20T06:29:30;6.30;;;4.80;;
68438;SDS011;55421;51.600;5.718;2023-05-20T06:31:58;8.10;;;4.50;;
68438;SDS011;55421;51.600;5.718;2023-05-20T06:34:25;5.60;;;4.50;;
68438;SDS011;55421;51.600;5.718;2023-05-20T06:36:52;6.70;;;4.80;;
68438;SDS011;55421;51.600;5.718;2023-05-20T06:39:18;7.10;;;4.30;;
68438;SDS011;55421;51.600;5.718;2023-05-20T06:41:45;8.00;;;4.80;;
68438;SDS011;55421;51.600;5.718;2023-05-20T06:44:11;8.20;;;4.60;;
68438;SDS011;55421;51.600;5.718;2023-05-20T06:46:38;6.00;;;4.40;;
68438;SDS011;55421;51.600;5.718;2023-05-20T06:49:04;7.10;;;4.70;;
68438;SDS011;55421;51.600;5.718;2023-05-20T06:51:31;6.60;;;4.70;;
68438;SDS011;55421;51.600;5.718;2023-05-20T06:53:58;5.40;;;4.70;;
68438;SDS011;55421;51.600;5.718;2023-05-20T06:56:24;6.70;;;4.80;;
68438;SDS011;55421;51.600;5.718;2023-05-20T06:58:51;5.60;;;4.50;;
68438;SDS011;55421;51.600;5.718;2023-05-20T07:01:17;5.60;;;4.30;;
68438;SDS011;55421;51.600;5.718;2023-05-20T07:03:44;6.60;;;3.70;;
68438;SDS011;55421;51.600;5.718;2023-05-20T07:06:10;7.20;;;4.60;;
68438;SDS011;55421;51.600;5.718;2023-05-20T07:08:37;7.40;;;4.20;;
68438;SDS011;55421;51.600;5.718;2023-05-20T07:11:03;6.90;;;4.00;;
68438;SDS011;55421;51.600;5.718;2023-05-20T07:13:31;6.40;;;4.10;;
68438;SDS011;55421;51.600;5.718;2023-05-20T07:15:57;4.10;;;3.70;;
68438;SDS011;55421;51.600;5.718;2023-05-20T07:18:24;4.60;;;4.00;;
68438;SDS011;55421;51.600;5.718;2023-05-20T07:20:51;5.00;;;4.30;;
68438;SDS011;55421;51.600;5.718;2023-05-20T07:23:18;5.70;;;4.00;;
68438;SDS011;55421;51.600;5.718;2023-05-20T07:25:44;5.10;;;3.90;;
68438;SDS011;55421;51.600;5.718;2023-05-20T07:28:14;4.40;;;3.90;;
68438;SDS011;55421;51.600;5.718;2023-05-20T07:30:41;4.80;;;4.30;;
68438;SDS011;55421;51.600;5.718;2023-05-20T07:33:07;5.20;;;3.90;;
68438;SDS011;55421;51.600;5.718;2023-05-20T07:35:34;6.90;;;4.40;;
68438;SDS011;55421;51.600;5.718;2023-05-20T07:38:00;8.60;;;3.90;;
68438;SDS011;55421;51.600;5.718;2023-05-20T07:40:27;4.10;;;3.70;;
68438;SDS011;55421;51.600;5.718;2023-05-20T07:42:53;7.10;;;4.30;;
68438;SDS011;55421;51.600;5.718;2023-05-20T07:45:19;7.10;;;4.20;;
68438;SDS011;55421;51.600;5.718;2023-05-20T07:47:46;7.70;;;4.30;;
68438;SDS011;55421;51.600;5.718;2023-05-20T07:50:12;5.80;;;4.10;;
68438;SDS011;55421;51.600;5.718;2023-05-20T07:52:39;8.50;;;4.00;;
68438;SDS011;55421;51.600;5.718;2023-05-20T07:55:06;8.80;;;3.70;;
68438;SDS011;55421;51.600;5.718;2023-05-20T07:57:33;5.40;;;3.70;;
68438;SDS011;55421;51.600;5.718;2023-05-20T07:59:59;4.90;;;3.60;;
68438;SDS011;55421;51.600;5.718;2023-05-20T08:02:26;5.60;;;3.60;;
68438;SDS011;55421;51.600;5.718;2023-05-20T08:04:52;4.70;;;3.40;;
68438;SDS011;55421;51.600;5.718;2023-05-20T08:07:19;6.10;;;3.20;;
68438;SDS011;55421;51.600;5.718;2023-05-20T08:09:46;5.00;;;3.20;;
68438;SDS011;55421;51.600;5.718;2023-05-20T08:12:12;6.60;;;3.60;;
68438;SDS011;55421;51.600;5.718;2023-05-20T08:14:39;5.70;;;3.50;;
68438;SDS011;55421;51.600;5.718;2023-05-20T08:17:05;4.10;;;3.70;;
68438;SDS011;55421;51.600;5.718;2023-05-20T08:19:32;5.60;;;4.10;;
68438;SDS011;55421;51.600;5.718;2023-05-20T08:21:58;12.10;;;3.90;;
68438;SDS011;55421;51.600;5.718;2023-05-20T08:24:25;7.50;;;3.10;;
68438;SDS011;55421;51.600;5.718;2023-05-20T08:26:51;8.10;;;3.30;;
68438;SDS011;55421;51.600;5.718;2023-05-20T08:29:18;3.80;;;3.10;;
68438;SDS011;55421;51.600;5.718;2023-05-20T08:31:44;5.80;;;3.90;;
68438;SDS011;55421;51.600;5.718;2023-05-20T08:34:11;8.10;;;3.60;;
68438;SDS011;55421;51.600;5.718;2023-05-20T08:36:37;18.90;;;3.60;;
68438;SDS011;55421;51.600;5.718;2023-05-20T08:39:05;3.30;;;3.00;;
68438;SDS011;55421;51.600;5.718;2023-05-20T08:41:31;5.30;;;2.90;;
68438;SDS011;55421;51.600;5.718;2023-05-20T08:43:59;4.00;;;3.00;;
68438;SDS011;55421;51.600;5.718;2023-05-20T08:46:27;6.80;;;3.10;;
68438;SDS011;55421;51.600;5.718;2023-05-20T08:48:54;3.10;;;2.80;;
68438;SDS011;55421;51.600;5.718;2023-05-20T08:51:24;3.70;;;3.30;;
68438;SDS011;55421;51.600;5.718;2023-05-20T08:53:53;4.40;;;2.90;;
68438;SDS011;55421;51.600;5.718;2023-05-20T08:56:19;7.60;;;3.00;;
68438;SDS011;55421;51.600;5.718;2023-05-20T08:58:47;3.70;;;3.30;;
68438;SDS011;55421;51.600;5.718;2023-05-20T09:01:13;5.50;;;3.40;;
68438;SDS011;55421;51.600;5.718;2023-05-20T09:03:39;8.60;;;3.30;;
68438;SDS011;55421;51.600;5.718;2023-05-20T09:06:07;4.60;;;3.60;;
68438;SDS011;55421;51.600;5.718;2023-05-20T09:08:34;9.20;;;3.40;;
68438;SDS011;55421;51.600;5.718;2023-05-20T09:11:01;5.50;;;3.20;;
68438;SDS011;55421;51.600;5.718;2023-05-20T09:13:30;6.10;;;3.90;;
68438;SDS011;55421;51.600;5.718;2023-05-20T09:15:59;3.50;;;3.20;;
68438;SDS011;55421;51.600;5.718;2023-05-20T09:18:27;3.70;;;3.40;;
68438;SDS011;55421;51.600;5.718;2023-05-20T09:20:55;7.70;;;3.30;;
68438;SDS011;55421;51.600;5.718;2023-05-20T09:23:22;4.20;;;3.50;;
68438;SDS011;55421;51.600;5.718;2023-05-20T09:25:51;3.90;;;2.90;;
68438;SDS011;55421;51.600;5.718;2023-05-20T09:28:19;4.80;;;3.10;;
68438;SDS011;55421;51.600;5.718;2023-05-20T09:30:49;3.30;;;2.90;;
68438;SDS011;55421;51.600;5.718;2023-05-20T09:33:17;6.60;;;3.00;;
68438;SDS011;55421;51.600;5.718;2023-05-20T09:35:43;2.80;;;2.50;;
68438;SDS011;55421;51.600;5.718;2023-05-20T09:38:11;5.20;;;2.80;;
68438;SDS011;55421;51.600;5.718;2023-05-20T09:40:41;7.30;;;2.70;;
68438;SDS011;55421;51.600;5.718;2023-05-20T09:43:09;4.30;;;3.30;;
68438;SDS011;55421;51.600;5.718;2023-05-20T09:45:37;4.80;;;2.70;;
68438;SDS011;55421;51.600;5.718;2023-05-20T09:48:04;2.80;;;2.50;;
68438;SDS011;55421;51.600;5.718;2023-05-20T09:50:31;5.70;;;2.50;;
68438;SDS011;55421;51.600;5.718;2023-05-20T09:53:01;3.20;;;2.90;;
68438;SDS011;55421;51.600;5.718;2023-05-20T09:55:30;3.40;;;2.90;;
68438;SDS011;55421;51.600;5.718;2023-05-20T09:58:01;2.90;;;2.50;;
68438;SDS011;55421;51.600;5.718;2023-05-20T10:00:29;3.50;;;2.60;;
68438;SDS011;55421;51.600;5.718;2023-05-20T10:02:56;3.50;;;2.60;;
68438;SDS011;55421;51.600;5.718;2023-05-20T10:05:28;2.70;;;2.50;;
68438;SDS011;55421;51.600;5.718;2023-05-20T10:19:48;3.50;;;3.10;;
68438;SDS011;55421;51.600;5.718;2023-05-20T10:22:26;3.50;;;2.60;;
68438;SDS011;55421;51.600;5.718;2023-05-20T10:25:04;3.00;;;2.80;;
68438;SDS011;55421;51.600;5.718;2023-05-20T10:27:45;3.20;;;2.90;;
68438;SDS011;55421;51.600;5.718;2023-05-20T10:30:17;5.10;;;3.00;;
68438;SDS011;55421;51.600;5.718;2023-05-20T10:32:52;3.90;;;2.60;;
68438;SDS011;55421;51.600;5.718;2023-05-20T10:35:26;9.00;;;3.00;;
68438;SDS011;55421;51.600;5.718;2023-05-20T10:38:07;3.40;;;3.10;;
68438;SDS011;55421;51.600;5.718;2023-05-20T10:40:35;4.90;;;3.20;;
68438;SDS011;55421;51.600;5.718;2023-05-20T10:43:09;5.30;;;2.40;;
68438;SDS011;55421;51.600;5.718;2023-05-20T10:45:47;2.90;;;2.70;;
68438;SDS011;55421;51.600;5.718;2023-05-20T10:48:27;4.00;;;2.70;;
68438;SDS011;55421;51.600;5.718;2023-05-20T10:51:01;6.60;;;3.00;;
68438;SDS011;55421;51.600;5.718;2023-05-20T10:53:39;8.90;;;3.20;;
68438;SDS011;55421;51.600;5.718;2023-05-20T10:56:16;2.90;;;2.70;;
68438;SDS011;55421;51.600;5.718;2023-05-20T10:58:50;3.20;;;2.90;;
68438;SDS011;55421;51.600;5.718;2023-05-20T11:01:23;6.20;;;2.60;;
68438;SDS011;55421;51.600;5.718;2023-05-20T11:03:54;3.30;;;2.50;;
68438;SDS011;55421;51.600;5.718;2023-05-20T11:06:26;3.80;;;2.30;;
68438;SDS011;55421;51.600;5.718;2023-05-20T11:08:53;4.80;;;2.80;;
68438;SDS011;55421;51.600;5.718;2023-05-20T11:11:21;2.90;;;2.60;;
68438;SDS011;55421;51.600;5.718;2023-05-20T11:13:52;4.00;;;2.40;;
68438;SDS011;55421;51.600;5.718;2023-05-20T11:16:21;3.20;;;2.40;;
68438;SDS011;55421;51.600;5.718;2023-05-20T11:18:48;4.60;;;2.70;;
68438;SDS011;55421;51.600;5.718;2023-05-20T11:21:15;4.20;;;2.50;;
68438;SDS011;55421;51.600;5.718;2023-05-20T11:23:43;3.90;;;2.70;;
68438;SDS011;55421;51.600;5.718;2023-05-20T11:26:09;6.10;;;2.70;;
68438;SDS011;55421;51.600;5.718;2023-05-20T11:28:36;3.40;;;2.60;;
68438;SDS011;55421;51.600;5.718;2023-05-20T11:31:03;4.00;;;2.70;;
68438;SDS011;55421;51.600;5.718;2023-05-20T11:33:30;4.10;;;3.00;;
68438;SDS011;55421;51.600;5.718;2023-05-20T11:35:57;2.70;;;2.50;;
68438;SDS011;55421;51.600;5.718;2023-05-20T11:38:23;2.50;;;2.30;;
68438;SDS011;55421;51.600;5.718;2023-05-20T11:40:52;6.50;;;2.80;;
68438;SDS011;55421;51.600;5.718;2023-05-20T11:43:22;4.10;;;2.90;;
68438;SDS011;55421;51.600;5.718;2023-05-20T11:45:54;4.60;;;2.70;;
68438;SDS011;55421;51.600;5.718;2023-05-20T11:48:24;2.90;;;2.70;;
68438;SDS011;55421;51.600;5.718;2023-05-20T11:50:53;2.50;;;2.30;;
68438;SDS011;55421;51.600;5.718;2023-05-20T11:53:22;3.20;;;2.90;;
68438;SDS011;55421;51.600;5.718;2023-05-20T11:55:52;3.00;;;2.80;;
68438;SDS011;55421;51.600;5.718;2023-05-20T11:58:23;2.90;;;2.40;;
68438;SDS011;55421;51.600;5.718;2023-05-20T12:00:52;3.20;;;2.40;;
68438;SDS011;55421;51.600;5.718;2023-05-20T12:03:19;3.90;;;2.60;;
68438;SDS011;55421;51.600;5.718;2023-05-20T12:05:45;3.10;;;2.90;;
68438;SDS011;55421;51.600;5.718;2023-05-20T12:08:13;3.20;;;3.00;;
68438;SDS011;55421;51.600;5.718;2023-05-20T12:10:40;3.50;;;2.70;;
68438;SDS011;55421;51.600;5.718;2023-05-20T12:13:07;3.70;;;2.80;;
68438;SDS011;55421;51.600;5.718;2023-05-20T12:15:34;6.10;;;3.30;;
68438;SDS011;55421;51.600;5.718;2023-05-20T12:18:02;3.50;;;3.20;;
68438;SDS011;55421;51.600;5.718;2023-05-20T12:20:30;3.50;;;3.00;;
68438;SDS011;55421;51.600;5.718;2023-05-20T12:23:00;3.60;;;2.80;;
68438;SDS011;55421;51.600;5.718;2023-05-20T12:25:26;3.10;;;2.90;;
68438;SDS011;55421;51.600;5.718;2023-05-20T12:27:54;4.00;;;2.90;;
68438;SDS011;55421;51.600;5.718;2023-05-20T12:30:22;5.20;;;2.80;;
68438;SDS011;55421;51.600;5.718;2023-05-20T12:32:50;5.30;;;3.10;;
68438;SDS011;55421;51.600;5.718;2023-05-20T12:35:24;5.00;;;2.80;;
68438;SDS011;55421;51.600;5.718;2023-05-20T12:38:01;3.50;;;2.50;;
68438;SDS011;55421;51.600;5.718;2023-05-20T12:40:27;3.00;;;2.70;;
68438;SDS011;55421;51.600;5.718;2023-05-20T12:42:54;4.30;;;2.60;;
68438;SDS011;55421;51.600;5.718;2023-05-20T12:45:21;2.50;;;2.30;;
68438;SDS011;55421;51.600;5.718;2023-05-20T12:47:47;4.10;;;3.00;;
68438;SDS011;55421;51.600;5.718;2023-05-20T12:50:14;6.90;;;2.70;;
68438;SDS011;55421;51.600;5.718;2023-05-20T12:52:40;3.70;;;2.70;;
68438;SDS011;55421;51.600;5.718;2023-05-20T12:55:07;3.00;;;2.60;;
68438;SDS011;55421;51.600;5.718;2023-05-20T12:57:42;2.70;;;2.30;;
68438;SDS011;55421;51.600;5.718;2023-05-20T13:00:10;3.30;;;2.80;;
68438;SDS011;55421;51.600;5.718;2023-05-20T13:02:38;2.70;;;2.50;;
68438;SDS011;55421;51.600;5.718;2023-05-20T13:05:06;3.70;;;2.70;;
68438;SDS011;55421;51.600;5.718;2023-05-20T13:07:33;3.10;;;2.60;;
68438;SDS011;55421;51.600;5.718;2023-05-20T13:09:59;2.90;;;2.60;;
68438;SDS011;55421;51.600;5.718;2023-05-20T13:12:26;2.60;;;2.40;;
68438;SDS011;55421;51.600;5.718;2023-05-20T13:14:52;3.00;;;2.70;;
68438;SDS011;55421;51.600;5.718;2023-05-20T13:17:19;2.90;;;2.50;;
68438;SDS011;55421;51.600;5.718;2023-05-20T13:19:45;4.80;;;2.80;;
68438;SDS011;55421;51.600;5.718;2023-05-20T13:22:12;3.10;;;2.40;;
68438;SDS011;55421;51.600;5.718;2023-05-20T13:24:38;3.10;;;2.40;;
68438;SDS011;55421;51.600;5.718;2023-05-20T13:27:05;7.30;;;2.40;;
68438;SDS011;55421;51.600;5.718;2023-05-20T13:29:32;2.80;;;2.50;;
68438;SDS011;55421;51.600;5.718;2023-05-20T13:31:58;3.10;;;2.50;;
68438;SDS011;55421;51.600;5.718;2023-05-20T13:34:24;2.90;;;2.50;;
68438;SDS011;55421;51.600;5.718;2023-05-20T13:36:51;2.40;;;2.20;;
68438;SDS011;55421;51.600;5.718;2023-05-20T13:39:18;2.60;;;2.40;;
68438;SDS011;55421;51.600;5.718;2023-05-20T13:41:44;3.50;;;2.80;;
68438;SDS011;55421;51.600;5.718;2023-05-20T13:44:11;2.60;;;2.30;;
68438;SDS011;55421;51.600;5.718;2023-05-20T13:46:37;3.30;;;2.80;;
68438;SDS011;55421;51.600;5.718;2023-05-20T13:49:03;3.50;;;2.70;;
68438;SDS011;55421;51.600;5.718;2023-05-20T13:51:30;3.00;;;2.50;;
68438;SDS011;55421;51.600;5.718;2023-05-20T13:53:57;3.00;;;2.60;;
68438;SDS011;55421;51.600;5.718;2023-05-20T13:56:23;3.90;;;2.50;;
68438;SDS011;55421;51.600;5.718;2023-05-20T13:58:50;4.40;;;2.50;;
68438;SDS011;55421;51.600;5.718;2023-05-20T14:01:17;5.60;;;2.70;;
68438;SDS011;55421;51.600;5.718;2023-05-20T14:03:44;4.50;;;2.60;;
68438;SDS011;55421;51.600;5.718;2023-05-20T14:06:11;3.90;;;2.80;;
68438;SDS011;55421;51.600;5.718;2023-05-20T14:08:40;3.30;;;2.70;;
68438;SDS011;55421;51.600;5.718;2023-05-20T14:11:06;4.80;;;2.50;;
68438;SDS011;55421;51.600;5.718;2023-05-20T14:13:33;4.70;;;2.70;;
68438;SDS011;55421;51.600;5.718;2023-05-20T14:15:59;7.10;;;2.40;;
68438;SDS011;55421;51.600;5.718;2023-05-20T14:18:26;4.40;;;2.70;;
68438;SDS011;55421;51.600;5.718;2023-05-20T14:20:52;4.80;;;2.30;;
68438;SDS011;55421;51.600;5.718;2023-05-20T14:23:19;2.70;;;2.10;;
68438;SDS011;55421;51.600;5.718;2023-05-20T14:25:46;2.60;;;2.40;;
68438;SDS011;55421;51.600;5.718;2023-05-20T14:28:13;3.30;;;2.50;;
68438;SDS011;55421;51.600;5.718;2023-05-20T14:30:39;4.00;;;2.30;;
68438;SDS011;55421;51.600;5.718;2023-05-20T14:33:06;2.90;;;2.70;;
68438;SDS011;55421;51.600;5.718;2023-05-20T14:35:32;3.00;;;2.70;;
68438;SDS011;55421;51.600;5.718;2023-05-20T14:37:59;4.60;;;2.30;;
68438;SDS011;55421;51.600;5.718;2023-05-20T14:40:25;2.90;;;2.70;;
68438;SDS011;55421;51.600;5.718;2023-05-20T14:42:52;2.50;;;2.30;;
68438;SDS011;55421;51.600;5.718;2023-05-20T14:45:19;2.30;;;2.10;;
68438;SDS011;55421;51.600;5.718;2023-05-20T14:47:46;2.50;;;2.30;;
68438;SDS011;55421;51.600;5.718;2023-05-20T14:50:12;3.10;;;2.30;;
68438;SDS011;55421;51.600;5.718;2023-05-20T14:52:39;3.80;;;2.50;;
68438;SDS011;55421;51.600;5.718;2023-05-20T14:55:06;2.60;;;2.40;;
68438;SDS011;55421;51.600;5.718;2023-05-20T14:57:33;2.50;;;2.10;;
68438;SDS011;55421;51.600;5.718;2023-05-20T15:00:00;3.60;;;2.30;;
68438;SDS011;55421;51.600;5.718;2023-05-20T15:02:26;2.40;;;2.20;;
68438;SDS011;55421;51.600;5.718;2023-05-20T15:04:53;2.50;;;2.30;;